Time;durP1;ratioP1;P1;durP2;ratioP2;P2;SDS_P1;SDS_P2;PMS_P1;PMS_P2;Temp;Humidity;BMP_temperature;BMP_pressure;BME280_temperature;BME280_humidity;BME280_pressure;Samples;Min_cycle;Max_cycle;Signal;HPM_P1;HPM_P2
2022/10/16 00:00:20;;;;;;;10.43;5.15;;;;;;;5.34;71.43;101523.48;1711749;84;21035;-68
2022/10/16 00:02:50;;;;;;;10.13;5.37;;;;;;;5.36;71.50;101521.49;1711111;84;21033;-69
2022/10/16 00:05:19;;;;;;;9.10;5.35;;;;;;;5.34;71.48;101523.48;1711779;82;21008;-68
2022/10/16 00:07:49;;;;;;;10.18;5.00;;;;;;;5.31;71.57;101531.91;1711834;84;21032;-69
2022/10/16 00:10:18;;;;;;;8.43;4.50;;;;;;;5.32;71.60;101527.34;1711971;84;21039;-69
2022/10/16 00:12:48;;;;;;;12.45;5.25;;;;;;;5.32;71.60;101532.27;1711628;83;21109;-70
2022/10/16 00:15:19;;;;;;;8.63;4.37;;;;;;;5.27;71.58;101528.24;1711745;84;21071;-70
2022/10/16 00:17:50;;;;;;;12.23;5.40;;;;;;;5.24;71.63;101528.52;1711830;84;21483;-69
2022/10/16 00:20:21;;;;;;;12.13;5.45;;;;;;;5.23;71.73;101525.44;1711659;84;21083;-70
2022/10/16 00:22:51;;;;;;;11.60;5.55;;;;;;;5.23;71.74;101528.16;1709115;82;21023;-69
2022/10/16 00:25:20;;;;;;;11.57;5.28;;;;;;;5.23;71.80;101528.16;1711734;82;21427;-70
2022/10/16 00:27:51;;;;;;;10.15;5.00;;;;;;;5.18;71.96;101524.95;1715457;83;21046;-70
2022/10/16 00:30:21;;;;;;;10.72;5.03;;;;;;;5.14;72.02;101528.93;1714412;82;21059;-71
2022/10/16 00:32:54;;;;;;;10.75;5.17;;;;;;;5.11;72.01;101521.91;1714748;83;21024;-69
2022/10/16 00:35:24;;;;;;;10.60;5.22;;;;;;;5.05;72.04;101529.24;1714389;83;21046;-69
2022/10/16 00:37:53;;;;;;;11.22;4.90;;;;;;;5.03;72.09;101525.30;1713010;83;21496;-69
2022/10/16 00:40:23;;;;;;;10.95;4.83;;;;;;;5.01;72.08;101535.44;1717118;83;21024;-68
2022/10/16 00:42:53;;;;;;;11.18;5.20;;;;;;;4.99;72.10;101532.00;1714844;83;21032;-70
2022/10/16 00:45:22;;;;;;;14.15;5.15;;;;;;;4.97;72.15;101533.12;1716905;83;21067;-69
2022/10/16 00:47:51;;;;;;;10.65;5.35;;;;;;;4.95;72.25;101533.27;1713078;83;21035;-68
2022/10/16 00:50:30;;;;;;;12.55;5.37;;;;;;;4.97;72.35;101540.78;1715053;83;21012;-68
2022/10/16 00:53:01;;;;;;;10.00;5.25;;;;;;;5.01;72.38;101538.66;1717808;83;21066;-67
2022/10/16 00:55:32;;;;;;;11.40;5.08;;;;;;;5.00;72.18;101536.94;1715081;82;21039;-70
2022/10/16 00:58:04;;;;;;;13.35;5.35;;;;;;;4.97;72.14;101542.63;1718553;82;21557;-68
2022/10/16 01:00:34;;;;;;;15.50;5.70;;;;;;;4.93;72.15;101547.97;1718982;82;21035;-68
2022/10/16 01:03:07;;;;;;;13.78;5.40;;;;;;;4.88;72.24;101551.58;1712418;83;21114;-68
2022/10/16 01:05:45;;;;;;;13.18;6.33;;;;;;;4.85;72.39;101552.70;1711933;83;21070;-71
2022/10/16 01:08:27;;;;;;;11.38;5.65;;;;;;;4.85;72.45;101555.42;1717500;83;21055;-71
2022/10/16 01:11:02;;;;;;;15.38;7.10;;;;;;;4.88;72.52;101551.08;1717836;83;21055;-68
2022/10/16 01:13:41;;;;;;;13.75;7.35;;;;;;;4.86;72.49;101550.85;1716197;83;21110;-69
2022/10/16 01:16:16;;;;;;;15.75;7.33;;;;;;;4.82;72.52;101553.47;1713218;82;21078;-69
2022/10/16 01:18:50;;;;;;;15.68;7.40;;;;;;;4.76;72.60;101553.50;1718956;83;21106;-67
2022/10/16 01:21:29;;;;;;;14.47;6.42;;;;;;;4.77;72.71;101546.58;1716385;82;21067;-69
2022/10/16 01:24:25;;;;;;;12.28;6.25;;;;;;;4.80;72.72;101551.38;1713793;83;21039;-70
2022/10/16 01:27:18;;;;;;;12.60;6.00;;;;;;;4.80;72.70;101552.74;1683627;84;21096;-68
2022/10/16 01:30:03;;;;;;;11.15;6.05;;;;;;;4.77;72.69;101560.16;1699914;84;21094;-69
2022/10/16 01:32:49;;;;;;;12.55;6.22;;;;;;;4.74;72.83;101559.56;1692467;84;21048;-67
2022/10/16 01:35:30;;;;;;;13.88;5.92;;;;;;;4.73;72.91;101562.77;1706109;84;21059;-68
2022/10/16 01:38:27;;;;;;;11.83;5.97;;;;;;;4.75;72.98;101568.06;1706342;84;20988;-69
2022/10/16 01:41:01;;;;;;;12.88;6.35;;;;;;;4.73;72.97;101566.84;1696713;84;21031;-69
2022/10/16 01:43:35;;;;;;;13.13;6.50;;;;;;;4.68;73.12;101571.80;1685576;84;21067;-69
2022/10/16 01:46:04;;;;;;;12.73;5.87;;;;;;;4.64;73.33;101568.13;1709819;84;21034;-70
2022/10/16 01:48:34;;;;;;;13.38;5.67;;;;;;;4.61;73.50;101576.03;1687689;84;21071;-70
2022/10/16 01:51:10;;;;;;;12.73;5.90;;;;;;;4.60;73.52;101577.03;1704244;84;21486;-69
2022/10/16 01:53:40;;;;;;;11.38;5.55;;;;;;;4.58;73.61;101574.94;1687288;84;20976;-68
2022/10/16 01:56:12;;;;;;;14.45;6.22;;;;;;;4.57;73.72;101577.29;1705814;84;21040;-69
2022/10/16 01:58:50;;;;;;;12.03;5.83;;;;;;;4.52;73.87;101579.99;1691037;84;21513;-69
2022/10/16 02:01:20;;;;;;;;;;;;;;;4.50;74.08;101571.98;1712883;84;21479;-68
2022/10/16 02:03:52;;;;;;;14.05;5.72;;;;;;;4.48;74.22;101575.32;1709174;83;20164;-69
2022/10/16 02:06:24;;;;;;;12.82;6.12;;;;;;;4.45;74.33;101574.22;1705945;84;21019;-70
2022/10/16 02:08:55;;;;;;;10.93;5.55;;;;;;;4.43;74.38;101577.56;1701979;84;21441;-69
2022/10/16 02:11:25;;;;;;;16.07;6.25;;;;;;;4.43;74.46;101582.98;1706796;84;21059;-70
2022/10/16 02:13:58;;;;;;;11.25;5.92;;;;;;;4.44;74.59;101580.14;1686239;84;21059;-69
2022/10/16 02:16:42;;;;;;;13.32;6.03;;;;;;;4.46;74.65;101587.66;1689632;84;21056;-70
2022/10/16 02:19:15;;;;;;;13.93;6.65;;;;;;;4.46;74.75;101589.02;1707878;84;21503;-69
2022/10/16 02:21:54;;;;;;;14.85;6.30;;;;;;;4.45;74.79;101585.08;1702249;84;21000;-70
2022/10/16 02:24:52;;;;;;;16.02;6.87;;;;;;;4.42;74.77;101581.27;1705975;84;21089;-70
2022/10/16 02:27:27;;;;;;;13.03;7.30;;;;;;;4.41;74.94;101597.19;1705212;83;21063;-70
2022/10/16 02:30:14;;;;;;;16.25;7.17;;;;;;;4.42;74.99;101586.69;1705000;84;21104;-70
2022/10/16 02:32:46;;;;;;;14.63;7.10;;;;;;;4.40;74.98;101585.96;1690238;84;21072;-69
2022/10/16 02:35:18;;;;;;;14.50;7.30;;;;;;;4.38;75.00;101594.23;1702989;84;21044;-69
2022/10/16 02:37:48;;;;;;;15.75;6.90;;;;;;;4.37;75.10;101593.86;1708610;84;21102;-69
2022/10/16 02:40:19;;;;;;;16.37;7.30;;;;;;;4.37;75.18;101597.07;1701348;84;20980;-68
2022/10/16 02:42:53;;;;;;;14.75;7.45;;;;;;;4.35;75.24;101593.63;1713221;83;21059;-70
2022/10/16 02:45:24;;;;;;;13.45;7.35;;;;;;;4.32;75.40;101603.37;1705083;84;21072;-70
2022/10/16 02:47:54;;;;;;;13.65;7.10;;;;;;;4.29;75.48;101596.36;1686014;84;21538;-69
2022/10/16 02:50:24;;;;;;;15.28;7.53;;;;;;;4.30;75.52;101598.08;1699196;84;21028;-70
2022/10/16 02:52:54;;;;;;;14.85;7.78;;;;;;;4.29;75.61;101601.78;1703131;84;21110;-67
2022/10/16 02:55:25;;;;;;;18.30;7.17;;;;;;;4.30;75.72;101605.36;1699099;84;21068;-68
2022/10/16 02:57:56;;;;;;;14.23;7.58;;;;;;;4.30;75.80;101602.64;1703219;84;21420;-68
2022/10/16 03:00:26;;;;;;;15.20;7.65;;;;;;;4.31;75.87;101612.02;1688012;84;21480;-69
2022/10/16 03:02:55;;;;;;;14.10;7.33;;;;;;;4.31;75.85;101620.16;1699887;83;21038;-69
2022/10/16 03:05:25;;;;;;;14.78;7.12;;;;;;;4.30;75.95;101617.08;1701605;84;21083;-69
2022/10/16 03:07:55;;;;;;;13.93;7.40;;;;;;;4.31;75.98;101616.08;1708127;84;21459;-68
2022/10/16 03:10:25;;;;;;;17.17;7.78;;;;;;;4.30;75.97;101618.43;1701282;84;21048;-70
2022/10/16 03:12:55;;;;;;;18.80;7.62;;;;;;;4.27;76.06;101620.53;1700037;84;21040;-68
2022/10/16 03:15:25;;;;;;;15.83;7.62;;;;;;;4.24;76.14;101623.50;1702753;84;21084;-70
2022/10/16 03:17:57;;;;;;;14.47;7.62;;;;;;;4.21;76.15;101621.04;1706266;84;21084;-69
2022/10/16 03:20:27;;;;;;;17.52;7.50;;;;;;;4.18;76.25;101614.02;1697903;82;21036;-69
2022/10/16 03:22:59;;;;;;;17.80;7.30;;;;;;;4.17;76.26;101621.79;1706913;82;21075;-68
2022/10/16 03:25:28;;;;;;;15.65;6.83;;;;;;;4.16;76.34;101628.20;1704479;84;21032;-69
2022/10/16 03:27:57;;;;;;;15.72;7.70;;;;;;;4.17;76.42;101630.42;1707143;84;21467;-71
2022/10/16 03:30:28;;;;;;;16.42;7.55;;;;;;;4.17;76.46;101626.36;1711714;84;21043;-70
2022/10/16 03:32:57;;;;;;;12.93;7.05;;;;;;;4.15;76.47;101626.48;1712018;84;21055;-70
2022/10/16 03:35:27;;;;;;;14.38;7.28;;;;;;;4.13;76.50;101628.45;1711829;84;21083;-68
2022/10/16 03:37:57;;;;;;;16.77;7.62;;;;;;;4.10;76.61;101636.35;1711766;84;21522;-69
2022/10/16 03:40:27;;;;;;;13.60;6.90;;;;;;;4.11;76.67;101631.30;1711743;84;21436;-68
2022/10/16 03:42:57;;;;;;;16.65;7.65;;;;;;;4.14;76.62;101631.54;1712092;83;21047;-68
2022/10/16 03:45:27;;;;;;;16.23;7.30;;;;;;;4.16;76.61;101635.48;1711629;84;21020;-70
2022/10/16 03:47:58;;;;;;;15.23;7.08;;;;;;;4.14;76.48;101626.97;1711835;84;21067;-70
2022/10/16 03:50:27;;;;;;;14.47;7.33;;;;;;;4.12;76.55;101633.52;1711864;84;21067;-68
2022/10/16 03:52:57;;;;;;;14.60;7.20;;;;;;;4.10;76.68;101630.06;1711605;84;21063;-68
2022/10/16 03:55:27;;;;;;;12.45;6.62;;;;;;;4.09;76.75;101628.34;1711748;82;21071;-67
2022/10/16 03:57:57;;;;;;;13.98;6.97;;;;;;;4.07;76.83;101624.89;1711808;84;21106;-69
2022/10/16 04:00:26;;;;;;;14.38;6.97;;;;;;;4.06;76.88;101627.23;1711523;84;21059;-69
2022/10/16 04:02:55;;;;;;;12.78;6.58;;;;;;;4.02;76.85;101629.83;1711786;84;21060;-71
2022/10/16 04:05:25;;;;;;;10.65;6.37;;;;;;;4.00;76.95;101629.95;1711767;84;21082;-68
2022/10/16 04:07:55;;;;;;;15.75;7.22;;;;;;;3.99;77.04;101635.50;1711664;84;21596;-70
2022/10/16 04:10:25;;;;;;;14.60;6.97;;;;;;;3.97;77.09;101635.62;1711860;83;21120;-69
2022/10/16 04:12:55;;;;;;;15.28;7.10;;;;;;;4.00;77.18;101635.88;1711979;84;21023;-70
2022/10/16 04:15:26;;;;;;;15.68;6.95;;;;;;;4.03;77.14;101638.34;1711755;84;21099;-67
2022/10/16 04:17:56;;;;;;;15.88;7.20;;;;;;;4.01;77.06;101639.81;1711716;84;21458;-69
2022/10/16 04:20:25;;;;;;;13.88;7.58;;;;;;;4.02;77.04;101632.55;1692381;84;21023;-68
2022/10/16 04:22:54;;;;;;;18.50;7.92;;;;;;;4.04;77.10;101634.14;1711804;84;21071;-69
2022/10/16 04:25:26;;;;;;;16.50;8.68;;;;;;;4.06;77.08;101643.02;1711782;84;21093;-67
2022/10/16 04:27:56;;;;;;;21.73;11.43;;;;;;;4.06;77.10;101638.95;1707489;84;21044;-69
2022/10/16 04:30:26;;;;;;;30.82;17.55;;;;;;;4.03;77.16;101637.84;1707861;83;21044;-70
2022/10/16 04:32:56;;;;;;;28.07;13.72;;;;;;;4.05;77.29;101648.07;1704573;84;21505;-68
2022/10/16 04:35:27;;;;;;;28.52;12.25;;;;;;;4.06;77.24;101653.86;1707916;84;21055;-68
2022/10/16 04:37:58;;;;;;;26.27;11.40;;;;;;;4.03;77.21;101648.69;1702978;84;21024;-68
2022/10/16 04:40:27;;;;;;;20.60;11.45;;;;;;;4.03;77.23;101663.61;1707317;84;21501;-69
2022/10/16 04:42:57;;;;;;;25.23;12.58;;;;;;;4.02;77.31;101665.95;1706363;83;21095;-69
2022/10/16 04:45:26;;;;;;;29.20;12.28;;;;;;;4.03;77.40;101669.03;1702923;83;21501;-70
2022/10/16 04:48:00;;;;;;;23.05;11.60;;;;;;;4.03;77.45;101671.73;1704701;84;21106;-68
2022/10/16 04:50:29;;;;;;;23.15;11.25;;;;;;;4.03;77.51;101675.81;1704382;82;21048;-69
2022/10/16 04:53:09;;;;;;;23.77;10.95;;;;;;;4.02;77.62;101681.36;1686072;84;21071;-69
2022/10/16 04:55:38;;;;;;;24.02;10.75;;;;;;;4.05;77.70;101682.47;1706904;83;21651;-69
2022/10/16 04:58:09;;;;;;;20.15;10.38;;;;;;;4.09;77.71;101688.01;1702993;84;21478;-70
2022/10/16 05:00:40;;;;;;;25.57;11.15;;;;;;;4.07;77.74;101685.42;1703109;83;21084;-69
2022/10/16 05:03:09;;;;;;;22.62;11.22;;;;;;;4.06;77.88;101686.41;1683331;84;21451;-68
2022/10/16 05:05:44;;;;;;;20.25;9.80;;;;;;;4.10;77.99;101691.09;1699193;83;21055;-68
2022/10/16 05:08:13;;;;;;;21.52;10.30;;;;;;;4.10;78.03;101694.66;1704851;84;21423;-68
2022/10/16 05:10:44;;;;;;;19.57;9.00;;;;;;;4.10;78.11;101699.23;1701579;84;21056;-68
2022/10/16 05:13:14;;;;;;;18.50;8.70;;;;;;;4.13;78.21;101705.27;1704613;84;21055;-70
2022/10/16 05:15:48;;;;;;;17.75;8.55;;;;;;;4.18;78.26;101702.18;1701315;84;21069;-69
2022/10/16 05:18:17;;;;;;;17.15;8.75;;;;;;;4.20;78.23;101708.34;1704331;83;21130;-69
2022/10/16 05:20:49;;;;;;;19.35;8.80;;;;;;;4.19;78.31;101709.83;1628031;88;21129;-70
2022/10/16 05:23:19;;;;;;;17.55;9.93;;;;;;;4.20;78.43;101715.13;1630985;88;21042;-70
2022/10/16 05:25:57;;;;;;;17.50;9.28;;;;;;;4.23;78.50;101722.16;1629808;88;21042;-69
2022/10/16 05:28:28;;;;;;;20.10;9.50;;;;;;;4.27;78.57;101718.20;1631867;87;21070;-71
2022/10/16 05:30:59;;;;;;;17.70;8.70;;;;;;;4.32;78.60;101724.98;1620546;88;21123;-71
2022/10/16 05:33:28;;;;;;;17.85;8.63;;;;;;;4.38;78.54;101727.69;1613720;89;21079;-70
2022/10/16 05:35:59;;;;;;;19.52;9.78;;;;;;;4.40;78.49;101735.21;1617568;88;21164;-69
2022/10/16 05:38:30;;;;;;;17.85;9.20;;;;;;;4.44;78.56;101738.04;1617287;85;21053;-69
2022/10/16 05:41:00;;;;;;;16.73;8.60;;;;;;;4.49;78.58;101741.73;1686959;85;21020;-69
2022/10/16 05:43:30;;;;;;;20.10;9.63;;;;;;;4.55;78.61;101744.84;1688704;85;21044;-68
2022/10/16 05:46:04;;;;;;;21.87;9.03;;;;;;;4.61;78.65;101749.77;1687014;84;21005;-70
2022/10/16 05:48:33;;;;;;;17.07;8.38;;;;;;;4.68;78.65;101749.63;1693018;85;21036;-69
2022/10/16 05:51:08;;;;;;;22.62;9.60;;;;;;;4.73;78.64;101752.83;1690808;85;21059;-69
2022/10/16 05:53:39;;;;;;;21.07;8.58;;;;;;;4.78;78.68;101757.38;1684867;85;21024;-69
2022/10/16 05:56:10;;;;;;;17.52;8.05;;;;;;;4.84;78.68;101753.78;1692009;85;21503;-70
2022/10/16 05:58:40;;;;;;;15.65;8.10;;;;;;;4.91;78.57;101756.36;1688038;85;20996;-69
2022/10/16 06:01:17;;;;;;;18.37;8.03;;;;;;;4.96;78.54;101758.20;1685720;85;21048;-70
2022/10/16 06:03:47;;;;;;;14.30;7.50;;;;;;;5.02;78.40;101764.47;1689516;85;21492;-69
2022/10/16 06:06:22;;;;;;;16.10;7.45;;;;;;;5.09;78.28;101768.40;1688061;85;21071;-70
2022/10/16 06:08:52;;;;;;;15.48;7.42;;;;;;;5.17;78.12;101772.69;1688075;85;21460;-70
2022/10/16 06:11:28;;;;;;;18.20;7.40;;;;;;;5.25;77.91;101771.58;1685810;85;21056;-70
2022/10/16 06:14:06;;;;;;;17.12;7.33;;;;;;;5.30;77.68;101776.13;1689996;85;21488;-70
2022/10/16 06:16:36;;;;;;;16.75;7.60;;;;;;;5.37;77.45;101776.47;1690566;85;21048;-70
2022/10/16 06:19:08;;;;;;;13.83;6.60;;;;;;;5.44;77.28;101776.31;1689052;85;21079;-69
2022/10/16 06:21:38;;;;;;;18.92;6.95;;;;;;;5.51;77.11;101775.30;1648331;87;21027;-68
2022/10/16 06:24:08;;;;;;;12.88;6.47;;;;;;;5.56;76.83;101779.84;1706438;83;21079;-70
2022/10/16 06:26:38;;;;;;;15.53;6.95;;;;;;;5.63;76.67;101780.55;1656367;84;21079;-70
2022/10/16 06:29:09;;;;;;;14.95;6.75;;;;;;;5.71;76.54;101781.23;1684475;84;21039;-69
2022/10/16 06:31:39;;;;;;;13.32;7.10;;;;;;;5.76;76.45;101787.14;1708203;83;21522;-70
2022/10/16 06:34:11;;;;;;;17.73;7.15;;;;;;;5.81;76.35;101790.33;1704565;84;21118;-68
2022/10/16 06:36:41;;;;;;;17.62;6.92;;;;;;;5.89;76.19;101795.13;1687177;84;21056;-70
2022/10/16 06:39:12;;;;;;;16.90;6.95;;;;;;;5.92;76.04;101795.77;1706816;84;21040;-68
2022/10/16 06:41:41;;;;;;;14.78;6.50;;;;;;;5.96;75.95;101794.50;1686102;84;21464;-69
2022/10/16 06:44:17;;;;;;;14.98;6.33;;;;;;;6.00;75.80;101797.31;1703165;83;21044;-68
2022/10/16 06:46:47;;;;;;;14.55;6.30;;;;;;;6.06;75.71;101801.36;1684178;84;21525;-69
2022/10/16 06:49:22;;;;;;;13.05;6.60;;;;;;;6.12;75.58;101802.19;1703950;84;21035;-69
2022/10/16 06:51:50;;;;;;;12.35;5.95;;;;;;;6.17;75.41;101794.97;1707023;84;21071;-68
2022/10/16 06:54:20;;;;;;;11.90;6.25;;;;;;;6.23;75.03;101795.80;1698916;84;21016;-69
2022/10/16 06:56:49;;;;;;;10.98;5.92;;;;;;;6.30;74.69;101798.33;1708082;84;21036;-69
2022/10/16 06:59:18;;;;;;;11.18;6.03;;;;;;;6.35;74.26;101795.56;1683817;84;21072;-71
2022/10/16 07:01:50;;;;;;;9.75;5.53;;;;;;;6.43;73.78;101800.33;1699690;84;21115;-69
2022/10/16 07:04:20;;;;;;;11.03;5.45;;;;;;;6.51;73.28;101797.81;1708891;84;21078;-68
2022/10/16 07:06:51;;;;;;;12.15;5.85;;;;;;;6.60;72.73;101798.35;1704972;82;21458;-68
2022/10/16 07:09:21;;;;;;;15.40;5.42;;;;;;;6.66;72.18;101793.72;1708537;84;21040;-71
2022/10/16 07:11:50;;;;;;;12.45;5.72;;;;;;;6.75;71.69;101792.52;1700541;84;21117;-68
2022/10/16 07:14:21;;;;;;;15.48;5.47;;;;;;;6.83;71.27;101789.47;1685956;84;21051;-70
2022/10/16 07:16:51;;;;;;;12.07;5.75;;;;;;;6.92;70.87;101799.52;1703970;84;21482;-70
2022/10/16 07:19:21;;;;;;;12.90;6.12;;;;;;;6.99;70.48;101797.09;1686056;84;21044;-69
2022/10/16 07:21:50;;;;;;;12.23;5.60;;;;;;;7.05;70.11;101793.81;1702854;84;21004;-70
2022/10/16 07:24:20;;;;;;;9.28;5.17;;;;;;;7.11;69.74;101800.06;1708246;84;21060;-68
2022/10/16 07:26:50;;;;;;;11.60;5.87;;;;;;;7.19;69.30;101801.61;1704532;84;21467;-69
2022/10/16 07:29:21;;;;;;;12.78;5.53;;;;;;;7.26;68.85;101808.22;1700456;84;21127;-69
2022/10/16 07:31:51;;;;;;;10.08;5.28;;;;;;;7.33;68.47;101807.65;1704393;83;21083;-69
2022/10/16 07:34:23;;;;;;;11.12;5.83;;;;;;;7.40;68.12;101811.03;1703132;84;21055;-69
2022/10/16 07:36:54;;;;;;;11.40;5.60;;;;;;;7.47;67.54;101809.45;1701838;83;21035;-70
2022/10/16 07:39:24;;;;;;;9.90;5.65;;;;;;;7.56;67.22;101806.37;1708561;84;21312;-70
2022/10/16 07:41:54;;;;;;;13.22;5.75;;;;;;;7.72;67.11;101808.52;1707843;84;21483;-69
2022/10/16 07:44:24;;;;;;;10.13;5.30;;;;;;;8.09;66.82;101811.36;1700187;84;21087;-68
2022/10/16 07:46:54;;;;;;;10.43;5.65;;;;;;;8.63;66.11;101812.03;1699122;84;21020;-68
2022/10/16 07:49:24;;;;;;;11.20;5.78;;;;;;;9.23;64.87;101808.34;1702914;84;20996;-68
2022/10/16 07:51:54;;;;;;;11.95;6.00;;;;;;;9.78;63.12;101802.23;1684647;84;21043;-68
2022/10/16 07:54:26;;;;;;;15.58;5.92;;;;;;;10.27;62.16;101801.76;1702784;84;21020;-68
2022/10/16 07:56:56;;;;;;;10.03;6.12;;;;;;;10.69;59.94;101790.89;1686830;84;21023;-68
2022/10/16 07:59:26;;;;;;;10.78;5.97;;;;;;;11.11;59.02;101793.13;1698316;84;21076;-69
2022/10/16 08:01:56;;;;;;;15.75;6.10;;;;;;;11.56;57.28;101793.20;1694773;84;21094;-66
2022/10/16 08:04:25;;;;;;;12.78;5.30;;;;;;;11.95;55.83;101799.45;1603811;89;21070;-68
2022/10/16 08:06:57;;;;;;;9.98;5.17;;;;;;;12.29;54.67;101802.84;1596055;89;21147;-68
2022/10/16 08:09:28;;;;;;;14.05;6.28;;;;;;;12.62;53.85;101798.16;1532605;92;21213;-71
2022/10/16 08:11:57;;;;;;;13.50;5.83;;;;;;;12.86;52.94;101801.33;1535739;92;21116;-69
2022/10/16 08:14:29;;;;;;;12.60;5.90;;;;;;;12.98;51.27;101794.39;1540061;93;21100;-69
2022/10/16 08:17:01;;;;;;;9.33;5.70;;;;;;;13.06;50.88;101796.28;1548123;93;21152;-67
2022/10/16 08:19:34;;;;;;;8.40;5.33;;;;;;;13.18;50.56;101792.63;1537342;92;21532;-68
2022/10/16 08:22:02;;;;;;;10.58;5.10;;;;;;;13.36;49.88;101790.45;1572443;86;21131;-70
2022/10/16 08:24:34;;;;;;;8.33;5.30;;;;;;;13.50;49.33;101792.94;1643244;86;21087;-70
2022/10/16 08:27:04;;;;;;;12.88;5.65;;;;;;;13.59;49.13;101797.34;1648904;86;21103;-69
2022/10/16 08:29:34;;;;;;;9.03;5.20;;;;;;;13.60;48.93;101800.44;1648225;86;21099;-68
2022/10/16 08:32:05;;;;;;;8.25;4.83;;;;;;;13.55;48.67;101803.74;1647246;85;21094;-67
2022/10/16 08:34:35;;;;;;;10.78;4.87;;;;;;;13.48;48.55;101801.91;1667794;84;21079;-69
2022/10/16 08:37:03;;;;;;;10.05;5.35;;;;;;;13.44;48.39;101798.66;1704852;84;21052;-69
2022/10/16 08:39:33;;;;;;;7.95;4.42;;;;;;;13.36;48.79;101800.09;1703953;84;21075;-67
2022/10/16 08:42:40;;;;;;;9.08;4.70;;;;;;;13.27;48.66;101791.55;1706482;83;21091;-69
2022/10/16 08:45:43;;;;;;;10.75;4.67;;;;;;;13.12;48.66;101786.44;1694155;84;21028;-68
2022/10/16 08:48:30;;;;;;;6.33;3.98;;;;;;;12.99;49.15;101794.73;1692983;84;21127;-69
2022/10/16 08:51:01;;;;;;;7.53;3.95;;;;;;;12.92;48.85;101797.00;1691510;84;21083;-68
2022/10/16 08:53:43;;;;;;;7.60;3.92;;;;;;;12.76;48.25;101799.30;1684692;84;21511;-67
2022/10/16 08:56:13;;;;;;;5.62;3.65;;;;;;;12.55;48.47;101794.91;1705757;84;21448;-68
2022/10/16 08:58:42;;;;;;;8.70;4.10;;;;;;;12.35;48.83;101794.42;1702410;84;21080;-67
2022/10/16 09:01:18;;;;;;;10.40;4.55;;;;;;;12.27;49.47;101798.56;1705424;84;21035;-67
2022/10/16 09:04:26;;;;;;;7.20;3.52;;;;;;;12.22;49.36;101802.34;1703609;82;21521;-68
2022/10/16 09:07:18;;;;;;;6.17;3.02;;;;;;;12.14;49.05;101796.34;1703896;84;21035;-68
2022/10/16 09:10:17;;;;;;;5.95;2.95;;;;;;;12.10;49.00;101799.10;1703770;82;21127;-69
2022/10/16 09:13:09;;;;;;;5.70;3.10;;;;;;;12.05;49.10;101793.27;1702950;84;21044;-68
2022/10/16 09:16:14;;;;;;;7.37;3.10;;;;;;;12.01;48.94;101787.78;1698965;84;21000;-68
2022/10/16 09:19:09;;;;;;;6.60;3.20;;;;;;;11.99;49.26;101791.22;1706114;84;21545;-70
2022/10/16 09:21:42;;;;;;;5.62;2.90;;;;;;;11.96;48.21;101797.05;1701571;84;21055;-68
2022/10/16 09:24:18;;;;;;;5.22;3.05;;;;;;;11.91;48.14;101802.20;1705994;84;21095;-69
2022/10/16 09:26:48;;;;;;;6.25;2.87;;;;;;;11.87;47.82;101798.09;1699068;84;21044;-69
2022/10/16 09:29:20;;;;;;;4.33;2.70;;;;;;;11.84;48.31;101799.80;1703453;84;21043;-69
2022/10/16 09:31:51;;;;;;;5.05;2.67;;;;;;;11.85;47.55;101793.28;1706325;83;21060;-69
2022/10/16 09:34:32;;;;;;;5.83;2.50;;;;;;;11.84;47.15;101794.31;1683647;84;21039;-68
2022/10/16 09:37:13;;;;;;;6.80;2.58;;;;;;;11.83;47.10;101788.48;1711713;84;21078;-69
2022/10/16 09:39:51;;;;;;;4.55;2.50;;;;;;;11.83;46.50;101801.70;1692939;84;20984;-69
2022/10/16 09:42:26;;;;;;;4.58;2.83;;;;;;;11.82;46.72;101788.99;1711414;84;21000;-69
2022/10/16 09:44:55;;;;;;;6.40;2.90;;;;;;;11.85;47.10;101782.30;1711482;84;21015;-68
2022/10/16 09:47:26;;;;;;;8.80;3.22;;;;;;;11.84;47.37;101795.69;1711298;84;21004;-69
2022/10/16 09:50:06;;;;;;;5.58;3.02;;;;;;;11.78;47.79;101784.02;1711593;84;21075;-70
2022/10/16 09:52:35;;;;;;;6.83;3.05;;;;;;;11.77;48.07;101776.27;1711611;84;21016;-70
2022/10/16 09:55:16;;;;;;;4.35;2.58;;;;;;;11.77;48.56;101766.64;1711613;84;21055;-68
2022/10/16 09:57:55;;;;;;;5.92;3.00;;;;;;;11.79;48.53;101766.51;1711448;84;22271;-69
2022/10/16 10:00:25;;;;;;;4.65;2.45;;;;;;;11.75;48.54;101769.56;1710367;84;21055;-69
2022/10/16 10:02:54;;;;;;;6.47;3.08;;;;;;;11.73;48.65;101768.87;1706192;83;21048;-69
2022/10/16 10:05:26;;;;;;;6.40;2.98;;;;;;;11.73;48.60;101766.65;1707465;84;21083;-69
2022/10/16 10:08:05;;;;;;;5.00;2.60;;;;;;;11.72;48.58;101760.30;1710816;83;22072;-69
2022/10/16 10:10:40;;;;;;;5.53;2.70;;;;;;;11.70;48.86;101755.98;1711585;84;21055;-69
2022/10/16 10:13:20;;;;;;;7.35;2.90;;;;;;;11.68;49.10;101753.41;1691023;84;21059;-69
2022/10/16 10:15:51;;;;;;;6.12;3.27;;;;;;;11.71;49.22;101761.33;1617597;89;21107;-69
2022/10/16 10:18:22;;;;;;;6.45;3.90;;;;;;;11.72;49.23;101742.45;1617851;89;21024;-68
2022/10/16 10:21:00;;;;;;;7.58;3.27;;;;;;;11.72;49.42;101731.98;1617866;89;21063;-70
2022/10/16 10:23:32;;;;;;;7.00;3.12;;;;;;;11.72;49.44;101725.97;1615592;89;21115;-69
2022/10/16 10:26:16;;;;;;;10.35;3.20;;;;;;;11.75;49.59;101728.89;1617868;89;21071;-70
2022/10/16 10:29:16;;;;;;;5.20;3.20;;;;;;;11.78;49.39;101719.48;1618023;89;21048;-70
2022/10/16 10:32:05;;;;;;;5.55;3.00;;;;;;;11.80;49.15;101717.42;1627784;87;21562;-67
2022/10/16 10:35:04;;;;;;;5.03;2.58;;;;;;;11.79;49.05;101712.44;1699551;83;21059;-70
2022/10/16 10:37:44;;;;;;;8.55;2.70;;;;;;;11.78;49.14;101708.50;1727596;83;21087;-68
2022/10/16 10:40:59;;;;;;;5.35;2.60;;;;;;;11.78;48.86;101717.59;1727964;83;21518;-68
2022/10/16 10:44:16;;;;;;;5.35;2.00;;;;;;;11.80;48.90;101719.65;1725927;83;21585;-68
2022/10/16 10:46:52;;;;;;;6.50;2.25;;;;;;;11.82;47.30;101716.22;1709184;83;21058;-69
2022/10/16 10:49:41;;;;;;;4.47;2.08;;;;;;;11.83;46.98;101707.45;1729073;83;21089;-65
2022/10/16 10:52:59;;;;;;;4.95;1.92;;;;;;;11.84;47.22;101716.04;1710217;83;21521;-63
2022/10/16 10:55:55;;;;;;;6.90;2.00;;;;;;;11.87;48.62;101723.42;1698039;83;21528;-64
2022/10/16 10:58:45;;;;;;;4.80;1.82;;;;;;;11.90;48.03;101720.32;1688458;84;21094;-68
2022/10/16 11:01:23;;;;;;;5.22;2.67;;;;;;;11.94;47.14;101722.20;1708849;83;21063;-67
2022/10/16 11:04:01;;;;;;;4.15;2.05;;;;;;;11.94;45.62;101718.94;1707818;83;21074;-69
2022/10/16 11:06:49;;;;;;;3.92;2.00;;;;;;;11.94;45.10;101722.20;1727627;82;21098;-68
2022/10/16 11:09:40;;;;;;;4.67;1.80;;;;;;;11.93;45.10;101726.84;1701488;82;21047;-66
2022/10/16 11:12:22;;;;;;;3.20;2.00;;;;;;;11.90;45.42;101727.19;1705014;83;21043;-68
2022/10/16 11:15:14;;;;;;;7.42;4.40;;;;;;;11.92;45.53;101725.13;1728134;83;21960;-67
2022/10/16 11:18:01;;;;;;;9.45;2.50;;;;;;;11.92;45.69;101729.76;1726665;83;21146;-69
2022/10/16 11:20:34;;;;;;;6.73;2.70;;;;;;;11.93;45.56;101725.98;1709336;83;21439;-69
2022/10/16 11:23:23;;;;;;;5.87;2.27;;;;;;;11.95;45.10;101739.03;1724981;83;21765;-70
2022/10/16 11:25:54;;;;;;;4.53;2.20;;;;;;;11.97;45.20;101739.70;1709436;83;21576;-68
2022/10/16 11:28:38;;;;;;;6.40;2.58;;;;;;;11.97;45.44;101742.45;1724409;83;21090;-69
2022/10/16 11:31:24;;;;;;;9.88;2.55;;;;;;;11.99;45.22;101744.00;1720312;82;21110;-69
2022/10/16 11:34:02;;;;;;;6.22;2.05;;;;;;;12.00;45.10;101740.73;1705262;84;21080;-68
2022/10/16 11:36:43;;;;;;;3.33;2.10;;;;;;;11.99;45.57;101742.63;1706748;84;21048;-70
2022/10/16 11:39:25;;;;;;;7.10;2.10;;;;;;;12.00;45.68;101740.73;1706944;84;21055;-66
2022/10/16 11:42:09;;;;;;;7.65;2.17;;;;;;;12.02;45.69;101746.39;1701292;83;21053;-68
2022/10/16 11:45:05;;;;;;;5.45;2.17;;;;;;;12.05;46.44;101743.81;1704510;83;21044;-70
2022/10/16 11:47:45;;;;;;;7.40;2.30;;;;;;;12.07;45.97;101740.38;1703432;84;21013;-66
2022/10/16 11:50:21;;;;;;;7.78;3.10;;;;;;;12.06;46.01;101729.91;1696885;84;21107;-69
2022/10/16 11:53:21;;;;;;;7.12;2.98;;;;;;;12.09;45.75;101734.19;1694923;84;21090;-68
2022/10/16 11:55:52;;;;;;;4.83;2.30;;;;;;;12.08;45.00;101731.10;1702825;84;21068;-68
2022/10/16 11:59:02;;;;;;;6.65;2.83;;;;;;;12.05;44.69;101727.33;1699009;83;21047;-69